Time;durP1;ratioP1;P1;durP2;ratioP2;P2;SDS_P1;SDS_P2;PMS_P1;PMS_P2;Temp;Humidity;BMP_temperature;BMP_pressure;BME280_temperature;BME280_humidity;BME280_pressure;Samples;Min_cycle;Max_cycle;Signal;HPM_P1;HPM_P2
2022/08/13 00:00:41;;;;;;;10.85;5.97;;;26.10;99.90;;;;;;1821948;76;21207;-82
2022/08/13 00:03:18;;;;;;;13.48;6.15;;;26.10;99.90;;;;;;1833181;77;21084;-82
2022/08/13 00:05:50;;;;;;;14.83;6.15;;;26.20;99.90;;;;;;1830457;77;21281;-82
2022/08/13 00:08:23;;;;;;;9.48;6.00;;;26.10;99.90;;;;;;1826451;77;21153;-81
2022/08/13 00:10:55;;;;;;;9.43;5.62;;;26.10;99.90;;;;;;1828717;76;21701;-81
2022/08/13 00:13:27;;;;;;;10.78;6.72;;;26.20;99.90;;;;;;1835787;76;21140;-82
2022/08/13 00:16:01;;;;;;;9.55;6.25;;;26.20;99.90;;;;;;1829827;76;21166;-81
2022/08/13 00:18:32;;;;;;;11.00;5.92;;;26.10;99.90;;;;;;1821712;77;21245;-81
2022/08/13 00:21:09;;;;;;;9.03;6.20;;;26.20;99.90;;;;;;1793771;77;21191;-82
2022/08/13 00:23:40;;;;;;;11.12;5.70;;;26.20;99.90;;;;;;1809008;79;21701;-69
2022/08/13 00:26:14;;;;;;;11.22;6.10;;;26.20;99.90;;;;;;1790180;79;21199;-68
2022/08/13 00:28:48;;;;;;;12.35;6.20;;;26.20;99.90;;;;;;1795563;79;21244;-69
2022/08/13 00:31:18;;;;;;;11.30;6.10;;;26.30;99.90;;;;;;1808687;78;21164;-68
2022/08/13 00:33:50;;;;;;;7.67;5.45;;;26.30;99.90;;;;;;1787797;77;21142;-69
2022/08/13 00:36:24;;;;;;;11.05;6.17;;;26.30;99.90;;;;;;1805571;77;21167;-68
2022/08/13 00:38:56;;;;;;;12.65;6.37;;;26.40;99.90;;;;;;1809355;77;21251;-69
2022/08/13 00:41:38;;;;;;;10.82;6.37;;;26.40;99.90;;;;;;1805964;78;21654;-69
2022/08/13 00:44:04;;;;;;;9.75;6.00;;;26.40;99.90;;;;;;1807348;78;21148;-69
2022/08/13 00:46:38;;;;;;;6.83;4.53;;;26.40;99.90;;;;;;1814020;77;21721;-68
2022/08/13 00:49:13;;;;;;;7.87;5.05;;;26.50;99.90;;;;;;1805266;77;21544;-69
2022/08/13 00:51:46;;;;;;;8.30;5.03;;;26.50;99.90;;;;;;1839325;76;21136;-69
2022/08/13 00:54:18;;;;;;;11.50;5.00;;;26.50;99.90;;;;;;1826846;78;21122;-69
2022/08/13 00:56:52;;;;;;;10.72;5.00;;;26.60;99.90;;;;;;1805402;77;21633;-69
2022/08/13 00:59:22;;;;;;;9.90;4.65;;;26.70;99.90;;;;;;1808125;79;21672;-68
2022/08/13 01:01:55;;;;;;;14.63;4.95;;;26.70;99.90;;;;;;1809028;77;21116;-67
2022/08/13 01:04:28;;;;;;;8.58;4.25;;;26.80;99.90;;;;;;1850526;76;21085;-67
2022/08/13 01:07:01;;;;;;;6.72;3.92;;;26.80;99.90;;;;;;1856340;76;21137;-68
2022/08/13 01:09:35;;;;;;;8.30;4.53;;;26.80;99.90;;;;;;1847794;76;21785;-68
2022/08/13 01:12:09;;;;;;;9.78;4.10;;;26.90;99.90;;;;;;1848535;76;21173;-68
2022/08/13 01:14:43;;;;;;;10.95;4.67;;;26.90;99.90;;;;;;1853525;76;21170;-68
2022/08/13 01:17:16;;;;;;;6.67;4.30;;;26.90;99.90;;;;;;1853588;76;21617;-68
2022/08/13 01:20:10;;;;;;;8.95;4.35;;;26.90;99.90;;;;;;1856970;76;21196;-69
2022/08/13 01:22:42;;;;;;;7.85;4.37;;;26.90;99.90;;;;;;1771821;79;21228;-69
2022/08/13 01:25:14;;;;;;;8.25;4.53;;;27.00;99.90;;;;;;1735524;81;21265;-69
2022/08/13 01:27:47;;;;;;;8.48;4.28;;;27.00;99.90;;;;;;1772341;79;21146;-70
2022/08/13 01:30:20;;;;;;;7.85;4.83;;;27.10;99.90;;;;;;1732736;82;22126;-68
2022/08/13 01:32:54;;;;;;;8.75;4.45;;;27.10;99.90;;;;;;1772864;79;21269;-69
2022/08/13 01:35:26;;;;;;;10.60;4.83;;;27.10;99.90;;;;;;1735188;81;21278;-68
2022/08/13 01:37:59;;;;;;;11.25;4.92;;;27.10;99.90;;;;;;1773068;79;21170;-69
2022/08/13 01:40:33;;;;;;;8.58;3.95;;;27.20;99.90;;;;;;1773748;79;21177;-69
2022/08/13 01:43:05;;;;;;;7.03;4.42;;;27.20;99.90;;;;;;1780057;79;21154;-69
2022/08/13 01:45:39;;;;;;;13.48;5.42;;;27.20;99.90;;;;;;1786856;78;21322;-69
2022/08/13 01:50:47;;;;;;;9.10;4.40;;;27.20;99.90;;;;;;1763302;79;21623;-69
2022/08/13 01:53:19;;;;;;;8.63;4.40;;;27.30;99.90;;;;;;1770884;76;21663;-69
2022/08/13 01:55:54;;;;;;;9.68;4.40;;;27.30;99.90;;;;;;1831990;77;21142;-69
2022/08/13 01:58:29;;;;;;;7.60;4.20;;;27.40;99.90;;;;;;1877845;75;21138;-69
2022/08/13 02:01:05;;;;;;;10.78;5.05;;;27.40;99.90;;;;;;1884469;74;21176;-69
2022/08/13 02:03:38;;;;;;;6.70;4.37;;;27.30;99.90;;;;;;1859543;76;21202;-69
2022/08/13 02:06:11;;;;;;;7.50;4.05;;;27.40;99.90;;;;;;1879045;74;21343;-69
2022/08/13 02:08:44;;;;;;;6.90;4.33;;;27.40;99.90;;;;;;1891225;74;21207;-69
2022/08/13 02:11:15;;;;;;;7.65;4.05;;;27.50;99.90;;;;;;1902418;74;21060;-69
2022/08/13 02:13:48;;;;;;;11.73;5.03;;;27.50;99.90;;;;;;1903954;74;21246;-69
2022/08/13 02:16:20;;;;;;;9.85;4.55;;;27.50;99.90;;;;;;1890475;74;21250;-68
2022/08/13 02:18:54;;;;;;;9.63;4.95;;;27.50;99.90;;;;;;1893647;74;21065;-69
2022/08/13 02:21:30;;;;;;;10.28;4.90;;;27.60;99.90;;;;;;1895618;74;21142;-68
2022/08/13 02:24:03;;;;;;;6.05;4.15;;;27.70;99.90;;;;;;1888073;74;21603;-69
2022/08/13 02:26:38;;;;;;;8.25;4.40;;;27.70;99.90;;;;;;1884406;74;21190;-68
2022/08/13 02:29:09;;;;;;;6.58;4.20;;;27.80;99.90;;;;;;1866642;75;21127;-70
2022/08/13 02:31:43;;;;;;;9.15;4.22;;;27.80;99.90;;;;;;1872349;75;21144;-68
2022/08/13 02:34:15;;;;;;;9.45;4.60;;;27.90;99.90;;;;;;1826960;75;21119;-68
2022/08/13 02:37:15;;;;;;;6.62;4.17;;;28.00;99.90;;;;;;1853114;75;21221;-68
2022/08/13 02:39:48;;;;;;;9.98;4.95;;;28.10;99.90;;;;;;1845322;75;21629;-67
2022/08/13 02:42:22;;;;;;;8.88;4.97;;;28.10;99.90;;;;;;1859818;75;21246;-68
2022/08/13 02:44:53;;;;;;;10.53;5.50;;;28.20;99.90;;;;;;1846667;76;22029;-69
2022/08/13 02:47:45;;;;;;;10.80;4.50;;;28.20;99.70;;;;;;1848845;76;21228;-69
2022/08/13 02:50:20;;;;;;;10.20;4.58;;;28.30;99.80;;;;;;1896833;74;21192;-70
2022/08/13 02:52:51;;;;;;;8.00;4.22;;;28.40;99.80;;;;;;1890250;75;21109;-69
2022/08/13 02:55:24;;;;;;;7.72;4.55;;;28.50;99.60;;;;;;1852506;75;21085;-70
2022/08/13 02:57:56;;;;;;;9.35;4.47;;;28.50;99.30;;;;;;1868403;76;21193;-69
2022/08/13 03:00:30;;;;;;;9.25;4.80;;;28.50;99.20;;;;;;1849996;76;21605;-68
2022/08/13 03:03:03;;;;;;;8.23;4.97;;;28.50;99.30;;;;;;1857448;75;21238;-70
2022/08/13 03:05:36;;;;;;;11.88;4.45;;;28.50;99.60;;;;;;1813022;77;21238;-68
2022/08/13 03:08:09;;;;;;;7.58;4.53;;;28.50;99.70;;;;;;1847340;75;21163;-68
2022/08/13 03:10:42;;;;;;;8.43;4.90;;;28.60;99.40;;;;;;1839742;77;21087;-68
2022/08/13 03:13:15;;;;;;;10.58;4.70;;;28.60;99.50;;;;;;1872965;75;21172;-69
2022/08/13 03:15:50;;;;;;;11.00;5.10;;;28.60;99.40;;;;;;1891992;75;21630;-69
2022/08/13 03:18:23;;;;;;;9.35;4.25;;;28.80;98.90;;;;;;1872552;75;21201;-69
2022/08/13 03:20:54;;;;;;;7.37;3.80;;;28.80;98.80;;;;;;1877325;75;21158;-70
2022/08/13 03:23:28;;;;;;;7.50;3.52;;;28.80;99.00;;;;;;1880106;75;21564;-68
2022/08/13 03:25:59;;;;;;;8.00;4.08;;;28.90;98.90;;;;;;1859878;75;21157;-69
2022/08/13 03:28:30;;;;;;;5.72;3.20;;;28.90;98.90;;;;;;1868132;75;21618;-68
2022/08/13 03:31:03;;;;;;;6.35;3.00;;;28.80;97.70;;;;;;1890570;75;21532;-69
2022/08/13 03:33:35;;;;;;;7.42;2.90;;;28.80;97.50;;;;;;1874080;75;21639;-69
2022/08/13 03:36:17;;;;;;;7.20;3.08;;;28.90;97.30;;;;;;1889325;75;21185;-70
2022/08/13 03:38:48;;;;;;;9.90;3.67;;;28.90;97.80;;;;;;1889111;75;21169;-70
2022/08/13 03:41:21;;;;;;;9.50;3.50;;;29.00;98.30;;;;;;1858899;76;21116;-67
2022/08/13 03:43:53;;;;;;;10.93;4.08;;;29.10;97.60;;;;;;1855387;76;21105;-71
2022/08/13 03:46:27;;;;;;;5.85;3.47;;;29.20;97.60;;;;;;1861778;77;21180;-70
2022/08/13 03:48:59;;;;;;;6.37;3.52;;;29.20;97.80;;;;;;1848449;76;21164;-69
2022/08/13 03:51:33;;;;;;;8.40;3.67;;;29.10;98.30;;;;;;1865548;76;21755;-68
2022/08/13 03:54:06;;;;;;;7.67;3.80;;;29.10;98.00;;;;;;1845819;76;21252;-70
2022/08/13 03:56:39;;;;;;;5.60;3.95;;;29.10;97.90;;;;;;1845891;76;21444;-69
2022/08/13 03:59:13;;;;;;;6.28;3.85;;;29.10;98.40;;;;;;1854978;76;21173;-69
2022/08/13 04:01:44;;;;;;;7.80;4.12;;;29.10;98.40;;;;;;1850043;76;21173;-70
2022/08/13 04:04:18;;;;;;;6.95;3.02;;;29.10;98.40;;;;;;1841994;77;21127;-69
2022/08/13 04:06:52;;;;;;;9.68;3.60;;;29.10;98.40;;;;;;1850476;76;21052;-69
2022/08/13 04:09:23;;;;;;;5.97;3.20;;;29.10;98.10;;;;;;1823618;77;21194;-70
2022/08/13 04:11:55;;;;;;;6.72;3.22;;;29.10;98.50;;;;;;1881970;75;21062;-70
2022/08/13 04:14:27;;;;;;;12.00;3.33;;;29.10;98.60;;;;;;1878231;75;21137;-69
2022/08/13 04:16:59;;;;;;;8.28;2.77;;;29.20;98.00;;;;;;1856364;76;21128;-70
2022/08/13 04:19:33;;;;;;;5.80;3.00;;;29.30;98.20;;;;;;1825189;77;21081;-69
2022/08/13 04:22:04;;;;;;;9.43;2.87;;;29.40;97.30;;;;;;1826216;77;21289;-68
2022/08/13 04:24:37;;;;;;;7.92;3.75;;;29.40;97.60;;;;;;1880559;75;21148;-68
2022/08/13 04:27:09;;;;;;;6.35;3.15;;;29.50;97.60;;;;;;1847756;77;21190;-69
2022/08/13 04:29:41;;;;;;;7.35;3.98;;;29.60;98.30;;;;;;1823386;77;21637;-70
2022/08/13 04:32:13;;;;;;;8.38;3.60;;;29.90;97.40;;;;;;1887263;76;21551;-69
2022/08/13 04:34:45;;;;;;;9.68;3.33;;;30.10;96.30;;;;;;1875879;76;21700;-69
2022/08/13 04:37:17;;;;;;;7.95;3.00;;;30.20;96.20;;;;;;1881122;76;21647;-69
2022/08/13 04:39:52;;;;;;;7.10;2.62;;;30.30;96.30;;;;;;1857544;76;21162;-69
2022/08/13 04:42:24;;;;;;;7.90;2.62;;;30.40;96.00;;;;;;1822067;77;21131;-69
2022/08/13 04:44:56;;;;;;;7.95;3.22;;;30.30;95.80;;;;;;1854397;76;21235;-69
2022/08/13 04:47:28;;;;;;;7.72;2.52;;;30.30;95.20;;;;;;1854203;77;21167;-69
2022/08/13 04:49:59;;;;;;;7.37;2.58;;;30.20;95.40;;;;;;1852784;76;21170;-68
2022/08/13 04:52:32;;;;;;;7.90;3.25;;;30.10;96.00;;;;;;1859471;75;21638;-69
2022/08/13 04:55:06;;;;;;;5.87;2.42;;;30.10;96.20;;;;;;1837086;77;21196;-69
2022/08/13 04:57:41;;;;;;;8.93;2.72;;;30.20;94.70;;;;;;1852319;77;21177;-69
2022/08/13 05:00:14;;;;;;;6.67;2.72;;;30.20;94.90;;;;;;1835484;77;21243;-70
2022/08/13 05:02:46;;;;;;;6.95;2.50;;;30.30;95.80;;;;;;1845455;77;21172;-69
2022/08/13 05:05:21;;;;;;;8.53;2.87;;;30.40;95.90;;;;;;1887533;74;21142;-69
2022/08/13 05:07:52;;;;;;;8.85;2.60;;;30.50;95.20;;;;;;1867946;75;21224;-70
2022/08/13 05:10:24;;;;;;;6.80;3.00;;;30.70;95.10;;;;;;1885180;75;21142;-69
2022/08/13 05:12:57;;;;;;;5.28;2.10;;;30.80;94.70;;;;;;1893204;74;21141;-70
2022/08/13 05:15:30;;;;;;;6.40;2.27;;;31.00;94.10;;;;;;1890356;74;21103;-71
2022/08/13 05:18:05;;;;;;;;;;;31.00;94.90;;;;;;1874417;75;21106;-69
2022/08/13 05:20:43;;;;;;;7.42;2.58;;;31.10;96.00;;;;;;1854954;76;20145;-70
2022/08/13 05:23:13;;;;;;;8.13;2.85;;;31.10;94.20;;;;;;1841826;76;21115;-69
2022/08/13 05:25:46;;;;;;;6.22;2.50;;;31.00;94.20;;;;;;1871777;76;21107;-69
2022/08/13 05:28:20;;;;;;;5.28;2.70;;;31.00;94.40;;;;;;1835551;76;21234;-69
2022/08/13 05:30:52;;;;;;;8.53;2.75;;;31.00;94.80;;;;;;1844918;77;21715;-70
2022/08/13 05:33:27;;;;;;;7.47;2.58;;;31.00;94.60;;;;;;1867155;76;21164;-70
2022/08/13 05:36:02;;;;;;;7.70;2.45;;;30.90;94.30;;;;;;1838911;77;21217;-68
2022/08/13 05:38:35;;;;;;;8.93;3.10;;;30.90;94.50;;;;;;1861157;75;21588;-69
2022/08/13 05:41:13;;;;;;;7.17;2.45;;;30.90;94.20;;;;;;1870897;75;21238;-71
2022/08/13 05:43:42;;;;;;;6.60;2.52;;;31.00;93.70;;;;;;1879595;75;21143;-69
2022/08/13 05:46:14;;;;;;;10.03;2.50;;;31.00;93.90;;;;;;1858546;75;21782;-70
2022/08/13 05:48:57;;;;;;;8.05;2.27;;;31.00;93.90;;;;;;1871673;75;21139;-69
2022/08/13 05:51:24;;;;;;;6.20;1.95;;;31.00;93.70;;;;;;1857927;76;21600;-70
2022/08/13 05:53:59;;;;;;;6.15;2.20;;;31.00;93.90;;;;;;1845222;76;22128;-70
2022/08/13 05:56:38;;;;;;;9.30;2.20;;;31.00;93.40;;;;;;1873641;76;21120;-70
2022/08/13 05:59:05;;;;;;;7.80;2.25;;;31.10;93.30;;;;;;1864432;75;21182;-70
2022/08/13 06:04:14;;;;;;;7.10;2.50;;;31.30;93.70;;;;;;1873996;75;21176;-69
2022/08/13 06:06:50;;;;;;;7.25;2.85;;;31.40;93.10;;;;;;1875088;76;21085;-69
2022/08/13 06:09:24;;;;;;;6.80;2.20;;;31.60;93.60;;;;;;1876805;76;21567;-71
2022/08/13 06:11:59;;;;;;;6.53;2.17;;;31.60;93.50;;;;;;1877412;76;21596;-69
2022/08/13 06:14:33;;;;;;;10.03;2.55;;;31.60;93.10;;;;;;1873359;76;21184;-68
2022/08/13 06:17:05;;;;;;;5.83;2.65;;;31.50;93.60;;;;;;1877254;76;21145;-68
2022/08/13 06:19:38;;;;;;;6.37;2.27;;;31.50;93.00;;;;;;1886626;76;21168;-68
2022/08/13 06:22:12;;;;;;;6.70;2.27;;;31.50;93.20;;;;;;1876507;76;21112;-69
2022/08/13 06:24:45;;;;;;;5.03;2.80;;;31.40;93.00;;;;;;1880857;76;21164;-70
2022/08/13 06:27:17;;;;;;;12.63;3.08;;;31.40;92.70;;;;;;1871584;76;21179;-68
2022/08/13 06:29:49;;;;;;;6.05;2.33;;;31.40;92.70;;;;;;1877080;76;21174;-70
2022/08/13 06:32:22;;;;;;;7.12;2.33;;;31.40;93.40;;;;;;1869041;76;21541;-70
2022/08/13 06:34:55;;;;;;;7.45;2.65;;;31.50;93.40;;;;;;1871665;75;21747;-70
2022/08/13 06:37:27;;;;;;;7.20;2.55;;;31.40;93.10;;;;;;1884854;75;21403;-69
2022/08/13 06:40:01;;;;;;;8.28;2.95;;;31.50;92.90;;;;;;1876921;75;21111;-70
2022/08/13 06:42:34;;;;;;;7.47;2.22;;;31.50;92.40;;;;;;1873689;76;21128;-70
2022/08/13 06:45:06;;;;;;;8.38;2.80;;;31.60;92.50;;;;;;1880706;76;21576;-70
2022/08/13 06:47:38;;;;;;;8.50;2.58;;;31.50;93.40;;;;;;1882969;76;21651;-70
2022/08/13 06:50:11;;;;;;;6.55;2.35;;;31.50;93.00;;;;;;1852888;75;21155;-70
2022/08/13 06:52:43;;;;;;;9.38;2.70;;;31.50;93.00;;;;;;1840426;76;21709;-70
2022/08/13 06:55:17;;;;;;;6.42;2.52;;;31.60;92.90;;;;;;1824689;76;21167;-69
2022/08/13 06:57:51;;;;;;;6.17;2.50;;;31.70;92.90;;;;;;1830700;77;21172;-69
2022/08/13 07:00:25;;;;;;;9.53;2.80;;;31.70;93.20;;;;;;1800291;77;21148;-70
2022/08/13 07:02:59;;;;;;;6.87;2.60;;;31.70;93.30;;;;;;1807833;78;21601;-69
2022/08/13 07:05:33;;;;;;;5.85;2.22;;;31.70;92.70;;;;;;1840484;77;21222;-69
2022/08/13 07:08:07;;;;;;;6.85;2.70;;;31.70;93.10;;;;;;1787724;78;21731;-71
2022/08/13 07:10:44;;;;;;;8.23;2.92;;;31.80;92.90;;;;;;1810217;76;21206;-69
2022/08/13 07:13:14;;;;;;;5.85;2.50;;;31.80;93.20;;;;;;1806711;77;21562;-69
2022/08/13 07:15:52;;;;;;;7.25;2.17;;;31.90;93.30;;;;;;1785985;79;21272;-68
2022/08/13 07:18:23;;;;;;;9.48;2.50;;;31.90;92.10;;;;;;1826335;77;21129;-70
2022/08/13 07:20:53;;;;;;;8.33;2.10;;;31.90;92.50;;;;;;1809376;77;21119;-69
2022/08/13 07:23:26;;;;;;;10.70;2.42;;;31.90;92.20;;;;;;1817007;79;21506;-70
2022/08/13 07:25:59;;;;;;;7.97;2.90;;;31.90;92.00;;;;;;1812742;77;21179;-69
2022/08/13 07:28:33;;;;;;;8.33;3.05;;;31.90;91.70;;;;;;1812662;78;21102;-70
2022/08/13 07:31:06;;;;;;;6.83;2.33;;;31.80;92.10;;;;;;1800565;79;21181;-69
2022/08/13 07:33:42;;;;;;;7.85;2.60;;;31.90;92.10;;;;;;1820565;77;21089;-69
2022/08/13 07:36:14;;;;;;;12.15;4.25;;;31.90;92.20;;;;;;1819732;77;21543;-69
2022/08/13 07:38:46;;;;;;;6.92;2.45;;;31.90;91.90;;;;;;1832518;77;21162;-69
2022/08/13 07:41:20;;;;;;;7.92;3.05;;;31.80;91.20;;;;;;1827076;77;21099;-70
2022/08/13 07:43:51;;;;;;;8.35;2.42;;;31.80;91.50;;;;;;1795676;78;21174;-70
2022/08/13 07:46:24;;;;;;;9.83;3.70;;;31.80;92.30;;;;;;1851508;76;21104;-69
2022/08/13 07:48:57;;;;;;;9.75;3.58;;;31.80;92.20;;;;;;1866347;75;21658;-68
2022/08/13 07:51:29;;;;;;;7.33;2.72;;;31.80;92.00;;;;;;1813696;76;21189;-70
2022/08/13 07:54:02;;;;;;;9.08;2.45;;;31.80;91.80;;;;;;1800289;77;21145;-71
2022/08/13 07:56:36;;;;;;;6.58;2.33;;;31.80;91.70;;;;;;1839328;76;21174;-69
2022/08/13 07:59:09;;;;;;;5.30;2.10;;;31.90;91.80;;;;;;1811349;78;21153;-70
2022/08/13 08:01:43;;;;;;;5.87;2.70;;;31.90;91.50;;;;;;1848724;76;21675;-70
2022/08/13 08:04:16;;;;;;;10.70;2.98;;;31.90;90.60;;;;;;1882760;75;21660;-70
2022/08/13 08:06:50;;;;;;;6.75;2.27;;;31.90;90.90;;;;;;1886911;74;21157;-68
2022/08/13 08:09:24;;;;;;;10.32;2.85;;;32.00;91.40;;;;;;1882746;75;21121;-72
2022/08/13 08:14:31;;;;;;;8.85;3.27;;;32.00;90.30;;;;;;1883116;75;21129;-69
2022/08/13 08:17:05;;;;;;;5.08;2.10;;;32.00;90.20;;;;;;1885468;75;21131;-70
2022/08/13 08:19:47;;;;;;;11.25;2.20;;;32.00;90.30;;;;;;1901904;74;21184;-71
2022/08/13 08:22:21;;;;;;;9.93;2.42;;;32.10;90.10;;;;;;1913020;74;21175;-68
2022/08/13 08:24:54;;;;;;;5.65;2.17;;;32.10;90.70;;;;;;1888895;74;21211;-69
2022/08/13 08:27:25;;;;;;;7.60;2.85;;;32.10;90.20;;;;;;1879827;76;21168;-70
2022/08/13 08:30:00;;;;;;;6.47;2.10;;;32.10;89.90;;;;;;1879694;76;21168;-69
2022/08/13 08:32:32;;;;;;;5.85;2.08;;;32.10;89.30;;;;;;1878058;76;21118;-70
2022/08/13 08:35:05;;;;;;;5.53;2.05;;;32.10;87.90;;;;;;1875221;74;21675;-70
2022/08/13 08:42:48;;;;;;;8.73;2.47;;;32.00;88.80;;;;;;1909183;74;21130;-70
2022/08/13 08:45:21;;;;;;;7.97;2.50;;;32.00;90.00;;;;;;1913680;74;21120;-69
2022/08/13 08:47:53;;;;;;;4.60;1.85;;;32.00;90.40;;;;;;1908870;74;21676;-69
2022/08/13 08:50:26;;;;;;;10.65;2.33;;;32.00;90.80;;;;;;1880067;76;21656;-69
2022/08/13 08:55:36;;;;;;;9.68;2.12;;;31.90;90.10;;;;;;1890836;75;21233;-69
2022/08/13 08:58:08;;;;;;;6.42;2.27;;;31.90;90.00;;;;;;1866156;76;21132;-69
2022/08/13 09:00:42;;;;;;;11.78;2.75;;;31.90;90.10;;;;;;1855025;75;21157;-70
2022/08/13 09:03:29;;;;;;;10.43;2.62;;;31.90;90.20;;;;;;1855792;76;21637;-68
2022/08/13 09:06:01;;;;;;;8.55;2.62;;;31.80;90.70;;;;;;1825915;77;21208;-69
2022/08/13 09:08:36;;;;;;;6.60;2.70;;;31.80;90.50;;;;;;1866327;75;21193;-68
2022/08/13 09:11:07;;;;;;;8.15;2.67;;;31.80;90.90;;;;;;1875864;75;21167;-69
2022/08/13 09:13:43;;;;;;;7.87;2.50;;;31.80;91.30;;;;;;1865862;75;21140;-69
2022/08/13 09:16:18;;;;;;;8.85;2.47;;;31.80;91.30;;;;;;1871144;77;21823;-69
2022/08/13 09:18:50;;;;;;;11.15;3.77;;;31.80;91.10;;;;;;1874896;76;21086;-69
2022/08/13 09:21:22;;;;;;;10.18;3.10;;;31.70;91.00;;;;;;1876630;76;21110;-69
2022/08/13 09:23:55;;;;;;;6.20;2.45;;;31.70;91.00;;;;;;1876125;76;21632;-69
2022/08/13 09:26:28;;;;;;;7.10;2.33;;;31.70;91.10;;;;;;1871149;76;21656;-69
2022/08/13 09:28:59;;;;;;;7.90;3.00;;;31.60;91.00;;;;;;1878373;75;21182;-69
2022/08/13 09:31:31;;;;;;;7.12;2.52;;;31.60;91.20;;;;;;1874775;76;21126;-70
2022/08/13 09:34:03;;;;;;;6.60;2.67;;;31.60;91.60;;;;;;1823983;77;21759;-71
2022/08/13 09:36:38;;;;;;;11.40;3.00;;;31.60;91.60;;;;;;1829701;77;21728;-69
2022/08/13 09:39:11;;;;;;;7.17;2.95;;;31.60;91.60;;;;;;1848062;77;21132;-69
2022/08/13 09:41:50;;;;;;;8.48;2.55;;;31.60;91.50;;;;;;1877848;76;21269;-69
2022/08/13 09:44:19;;;;;;;10.60;2.75;;;31.50;91.60;;;;;;1881802;75;21174;-69
2022/08/13 09:46:51;;;;;;;6.58;2.72;;;31.50;91.50;;;;;;1861322;75;21197;-69
2022/08/13 09:49:22;;;;;;;7.22;2.90;;;31.40;91.40;;;;;;1872372;75;21164;-69
2022/08/13 09:51:54;;;;;;;6.00;2.60;;;31.40;91.50;;;;;;1853036;75;21150;-68
2022/08/13 09:54:26;;;;;;;6.47;2.10;;;31.40;91.50;;;;;;1853333;77;21107;-70
2022/08/13 09:56:59;;;;;;;18.55;9.33;;;31.40;91.50;;;;;;1852160;76;21159;-69
2022/08/13 09:59:32;;;;;;;8.63;4.50;;;31.40;91.50;;;;;;1853850;75;21108;-69
2022/08/13 10:02:09;;;;;;;8.93;3.98;;;31.30;91.30;;;;;;1857035;76;21143;-69
2022/08/13 10:04:42;;;;;;;8.58;5.15;;;31.40;91.60;;;;;;1853566;76;21150;-69
2022/08/13 10:07:15;;;;;;;11.40;4.67;;;31.40;91.60;;;;;;1846324;76;21135;-70
2022/08/13 10:09:47;;;;;;;7.55;2.90;;;31.30;91.40;;;;;;1863592;76;21567;-70
2022/08/13 10:12:20;;;;;;;9.30;4.92;;;31.30;91.60;;;;;;1830671;77;21516;-70
2022/08/13 10:14:51;;;;;;;9.13;2.95;;;31.30;92.00;;;;;;1882206;75;21183;-69
2022/08/13 10:17:27;;;;;;;15.63;4.15;;;31.20;91.60;;;;;;1882852;75;21146;-70
2022/08/13 10:19:59;;;;;;;23.98;4.47;;;31.20;91.70;;;;;;1878385;74;21293;-70
2022/08/13 10:22:31;;;;;;;18.35;4.10;;;31.10;91.60;;;;;;1877344;74;21186;-70
2022/08/13 10:25:02;;;;;;;114.15;13.75;;;31.10;91.80;;;;;;1860678;76;21093;-68
2022/08/13 10:27:35;;;;;;;17.62;4.67;;;31.10;92.30;;;;;;1871681;76;21131;-69
2022/08/13 10:30:08;;;;;;;18.07;3.98;;;31.00;91.50;;;;;;1863862;75;21134;-71
2022/08/13 10:32:42;;;;;;;26.25;4.47;;;31.00;91.80;;;;;;1889089;74;21559;-69
2022/08/13 10:35:17;;;;;;;9.58;2.60;;;31.00;91.80;;;;;;1904556;74;21170;-69
2022/08/13 10:37:53;;;;;;;5.42;2.20;;;30.90;91.80;;;;;;1883247;75;21704;-68
2022/08/13 10:40:24;;;;;;;8.18;2.67;;;30.90;91.90;;;;;;1853595;76;21193;-69
2022/08/13 10:42:56;;;;;;;14.28;3.10;;;30.80;92.00;;;;;;1845111;76;21068;-69
2022/08/13 10:45:29;;;;;;;6.65;2.98;;;30.80;92.30;;;;;;1848221;76;22213;-69
2022/08/13 10:48:01;;;;;;;6.58;2.50;;;30.80;92.30;;;;;;1832228;77;21213;-69
2022/08/13 10:50:32;;;;;;;7.42;2.80;;;30.80;92.50;;;;;;1812981;78;21625;-69
2022/08/13 10:53:04;;;;;;;10.85;3.65;;;30.70;92.40;;;;;;1846487;77;21270;-69
2022/08/13 10:55:36;;;;;;;8.40;3.42;;;30.70;92.60;;;;;;1847455;76;21561;-69
2022/08/13 10:58:13;;;;;;;7.37;2.90;;;30.70;92.60;;;;;;1850583;76;21605;-69
2022/08/13 11:00:42;;;;;;;6.15;3.15;;;30.70;92.70;;;;;;1846255;77;21185;-69
2022/08/13 11:03:16;;;;;;;7.17;2.98;;;30.60;92.70;;;;;;1833339;77;21132;-70
2022/08/13 11:05:47;;;;;;;7.30;3.15;;;30.60;92.70;;;;;;1822420;78;21653;-69
2022/08/13 11:08:20;;;;;;;12.35;3.50;;;30.60;92.80;;;;;;1881085;74;21117;-69
2022/08/13 11:10:52;;;;;;;10.08;3.67;;;30.60;92.90;;;;;;1892277;75;21109;-84
2022/08/13 11:13:24;;;;;;;7.67;2.65;;;30.60;92.80;;;;;;1879048;75;21187;-83
2022/08/13 11:15:58;;;;;;;8.98;3.20;;;30.60;92.90;;;;;;1831016;77;21146;-83
2022/08/13 11:18:30;;;;;;;8.18;3.30;;;30.50;92.80;;;;;;1827542;76;21127;-83
2022/08/13 11:21:02;;;;;;;9.80;4.22;;;30.50;92.60;;;;;;1838911;77;21135;-83
2022/08/13 11:23:35;;;;;;;11.55;4.15;;;30.50;92.90;;;;;;1863064;76;21178;-83
2022/08/13 11:26:07;;;;;;;10.75;4.40;;;30.50;93.00;;;;;;1815759;76;21099;-83
2022/08/13 11:28:39;;;;;;;10.25;4.28;;;30.50;93.00;;;;;;1873629;76;21212;-83
2022/08/13 11:31:12;;;;;;;9.63;4.20;;;30.50;93.10;;;;;;1880078;75;21262;-84
2022/08/13 11:33:44;;;;;;;8.18;4.00;;;30.50;93.00;;;;;;1881843;75;21136;-83
2022/08/13 11:36:17;;;;;;;8.90;3.92;;;30.50;93.00;;;;;;1846845;75;21147;-83
2022/08/13 11:38:48;;;;;;;8.68;3.47;;;30.40;93.00;;;;;;1847141;77;21539;-83
2022/08/13 11:41:21;;;;;;;10.58;4.42;;;30.40;93.00;;;;;;1857737;75;21645;-83
2022/08/13 11:43:53;;;;;;;10.63;4.33;;;30.40;93.10;;;;;;1841375;78;21097;-82
2022/08/13 11:46:26;;;;;;;11.57;3.77;;;30.40;94.20;;;;;;1814505;77;21133;-82
2022/08/13 11:48:58;;;;;;;9.95;3.67;;;30.30;94.80;;;;;;1832960;77;21272;-83
2022/08/13 11:51:30;;;;;;;8.48;3.77;;;30.20;95.10;;;;;;1827157;75;21233;-82
2022/08/13 11:54:02;;;;;;;9.85;3.75;;;30.00;95.50;;;;;;1842526;78;21302;-81
2022/08/13 11:56:34;;;;;;;10.75;3.87;;;30.00;95.70;;;;;;1833484;75;21203;-82
2022/08/13 11:59:07;;;;;;;11.18;3.72;;;29.80;96.00;;;;;;1856298;76;21630;-83
2022/08/13 12:01:38;;;;;;;8.83;3.70;;;29.80;96.20;;;;;;1859605;76;21635;-81
2022/08/13 12:04:15;;;;;;;11.60;3.37;;;29.70;96.40;;;;;;1857305;76;21161;-82
2022/08/13 12:06:47;;;;;;;12.45;4.12;;;29.60;96.40;;;;;;1855484;77;21287;-81
2022/08/13 12:09:20;;;;;;;8.73;3.60;;;29.60;96.40;;;;;;1847369;77;21105;-81
2022/08/13 12:11:52;;;;;;;8.58;4.15;;;29.50;96.60;;;;;;1853924;77;21135;-82
2022/08/13 12:14:24;;;;;;;9.33;3.83;;;29.50;96.80;;;;;;1855798;75;21160;-81
2022/08/13 12:16:57;;;;;;;12.93;4.80;;;29.50;96.80;;;;;;1866054;75;21246;-81
2022/08/13 12:19:29;;;;;;;8.85;4.70;;;29.40;96.90;;;;;;1865235;75;21162;-82
2022/08/13 12:22:00;;;;;;;11.40;5.40;;;29.40;96.90;;;;;;1865466;75;21212;-83
2022/08/13 12:24:36;;;;;;;9.38;4.87;;;29.40;97.10;;;;;;1860741;75;21120;-82
2022/08/13 12:27:05;;;;;;;9.20;4.55;;;29.40;97.10;;;;;;1832333;77;21119;-83
2022/08/13 12:29:36;;;;;;;15.05;5.20;;;29.40;97.30;;;;;;1840783;76;21062;-82
2022/08/13 12:32:09;;;;;;;9.48;4.42;;;29.40;97.30;;;;;;1835741;78;21228;-82
2022/08/13 12:34:41;;;;;;;10.28;3.90;;;29.40;97.30;;;;;;1833064;76;21162;-83
2022/08/13 12:37:13;;;;;;;12.13;4.92;;;29.40;97.10;;;;;;1838511;77;21251;-82
2022/08/13 12:39:47;;;;;;;11.70;5.50;;;29.40;97.10;;;;;;1823065;77;21218;-83
2022/08/13 12:42:19;;;;;;;11.68;5.65;;;29.40;97.20;;;;;;1832272;76;21100;-81
2022/08/13 12:44:53;;;;;;;11.33;5.05;;;29.40;97.30;;;;;;1856215;76;21121;-82
2022/08/13 12:47:25;;;;;;;11.30;4.75;;;29.40;97.50;;;;;;1821276;77;21764;-82
2022/08/13 12:49:57;;;;;;;10.95;4.65;;;29.40;97.50;;;;;;1820764;78;21210;-82
2022/08/13 12:52:30;;;;;;;12.68;4.67;;;29.40;97.60;;;;;;1861160;76;21151;-83
2022/08/13 12:55:04;;;;;;;10.98;4.50;;;29.40;97.70;;;;;;1824872;77;21110;-82
2022/08/13 12:57:38;;;;;;;15.58;4.55;;;29.40;97.80;;;;;;1824013;78;21200;-82
2022/08/13 13:00:14;;;;;;;8.83;4.28;;;29.40;97.70;;;;;;1784652;78;21165;-81
2022/08/13 13:02:50;;;;;;;12.33;4.87;;;29.40;97.70;;;;;;1828281;78;21184;-81
2022/08/13 13:05:21;;;;;;;12.37;4.83;;;29.40;97.70;;;;;;1840993;77;21178;-82
2022/08/13 13:07:56;;;;;;;8.33;3.95;;;29.40;97.60;;;;;;1808946;79;21677;-81
2022/08/13 13:10:28;;;;;;;11.83;4.37;;;29.40;97.70;;;;;;1841829;76;21155;-81
2022/08/13 13:13:01;;;;;;;10.23;4.03;;;29.40;97.70;;;;;;1804894;79;21199;-82
2022/08/13 13:15:32;;;;;;;10.75;4.22;;;29.40;97.60;;;;;;1831483;78;21215;-82
2022/08/13 13:18:07;;;;;;;11.28;4.28;;;29.40;97.70;;;;;;1809446;78;21835;-82
2022/08/13 13:20:43;;;;;;;10.33;4.57;;;29.40;97.80;;;;;;1785881;80;21121;-81
2022/08/13 13:23:20;;;;;;;9.60;4.28;;;29.40;97.70;;;;;;1827664;77;21060;-81
2022/08/13 13:25:57;;;;;;;12.15;5.15;;;29.30;97.70;;;;;;1839909;76;21178;-81
2022/08/13 13:28:31;;;;;;;13.65;4.90;;;29.40;97.80;;;;;;1844229;78;21274;-81